Time;durP1;ratioP1;P1;durP2;ratioP2;P2;SDS_P1;SDS_P2;PMS_P1;PMS_P2;Temp;Humidity;BMP_temperature;BMP_pressure;BME280_temperature;BME280_humidity;BME280_pressure;Samples;Min_cycle;Max_cycle;Signal;HPM_P1;HPM_P2
2023/05/19 00:01:16;;;;;;;3.33;1.00;;;;;;;13.21;45.76;102611.34;5004722;28;20040;-39
2023/05/19 00:03:53;;;;;;;5.40;1.45;;;;;;;13.24;46.07;102612.06;4994832;28;20041;-38
2023/05/19 00:06:23;;;;;;;5.55;1.58;;;;;;;13.32;45.47;102611.78;5000637;28;20366;-38
2023/05/19 00:08:49;;;;;;;6.30;1.38;;;;;;;13.33;45.56;102621.44;5001483;28;20030;-39
2023/05/19 00:11:18;;;;;;;7.38;1.05;;;;;;;13.25;45.79;102607.63;4995683;28;20025;-38
2023/05/19 00:13:48;;;;;;;6.05;1.65;;;;;;;13.26;45.83;102609.34;4986835;28;20156;-38
2023/05/19 00:16:14;;;;;;;6.47;1.35;;;;;;;13.25;45.81;102602.34;4983425;28;20072;-38
2023/05/19 00:18:40;;;;;;;5.63;1.40;;;;;;;13.25;45.93;102607.63;5002970;28;20039;-39
2023/05/19 00:21:06;;;;;;;7.80;1.60;;;;;;;13.20;45.90;102612.25;4993675;28;20129;-38
2023/05/19 00:23:34;;;;;;;3.28;1.30;;;;;;;13.26;45.99;102612.00;4993847;28;20030;-38
2023/05/19 00:25:59;;;;;;;5.00;2.05;;;;;;;13.22;45.90;102602.50;4990488;28;20116;-38
2023/05/19 00:28:25;;;;;;;10.65;1.40;;;;;;;13.23;46.09;102609.50;4987483;28;20038;-38
2023/05/19 00:30:50;;;;;;;5.55;1.42;;;;;;;13.22;46.29;102605.97;4982911;28;20048;-38
2023/05/19 00:33:16;;;;;;;4.50;1.25;;;;;;;13.22;46.00;102607.78;4985857;28;20425;-38
2023/05/19 00:35:43;;;;;;;5.47;1.50;;;;;;;13.22;46.19;102602.50;4999600;28;20026;-38
2023/05/19 00:38:09;;;;;;;5.00;1.40;;;;;;;13.28;46.22;102607.53;4995353;28;20026;-38
2023/05/19 00:40:35;;;;;;;5.10;1.60;;;;;;;13.26;46.32;102610.25;4994511;28;20114;-37
2023/05/19 00:43:01;;;;;;;8.02;1.38;;;;;;;13.27;46.15;102601.38;4983474;28;20037;-38
2023/05/19 00:45:27;;;;;;;4.78;1.38;;;;;;;13.23;46.46;102604.22;4994173;28;20041;-38
2023/05/19 00:47:58;;;;;;;5.47;1.98;;;;;;;13.20;46.44;102609.63;4995224;28;20129;-38
2023/05/19 00:50:23;;;;;;;10.10;1.77;;;;;;;13.30;46.44;102605.69;4990544;28;20440;-38
2023/05/19 00:52:50;;;;;;;4.32;1.10;;;;;;;13.36;46.40;102605.44;4980153;28;20485;-39
2023/05/19 00:55:16;;;;;;;9.93;1.80;;;;;;;13.32;46.37;102601.19;4998391;28;20037;-38
2023/05/19 00:57:45;;;;;;;6.28;1.70;;;;;;;13.32;46.60;102605.59;4991637;28;20057;-38
2023/05/19 01:00:11;;;;;;;7.32;1.95;;;;;;;13.33;46.52;102602.94;4997420;28;20025;-38
2023/05/19 01:02:38;;;;;;;6.78;1.65;;;;;;;13.32;46.61;102603.84;4993812;28;20480;-38
2023/05/19 01:05:05;;;;;;;5.43;1.25;;;;;;;13.35;46.70;102606.38;4998706;28;20044;-38
2023/05/19 01:07:34;;;;;;;8.20;1.88;;;;;;;13.25;46.83;102608.50;4995762;28;20044;-38
2023/05/19 01:09:59;;;;;;;7.60;1.35;;;;;;;13.21;46.78;102612.19;5002912;28;20033;-38
2023/05/19 01:12:28;;;;;;;7.28;1.27;;;;;;;13.20;47.08;102609.63;4994967;28;20044;-38
2023/05/19 01:14:56;;;;;;;8.40;1.83;;;;;;;13.19;46.88;102610.53;4996131;28;20356;-38
2023/05/19 01:17:34;;;;;;;5.32;1.20;;;;;;;13.22;47.04;102613.06;4997144;28;20028;-38
2023/05/19 01:20:16;;;;;;;8.35;1.27;;;;;;;13.23;47.11;102614.78;4997134;28;20034;-38
2023/05/19 01:22:47;;;;;;;6.05;1.52;;;;;;;13.28;46.86;102604.88;4994634;28;20066;-38
2023/05/19 01:25:35;;;;;;;10.00;1.50;;;;;;;13.28;47.02;102607.53;4999340;28;20033;-39
2023/05/19 01:28:31;;;;;;;4.93;1.45;;;;;;;13.25;47.13;102605.00;4991820;28;20113;-39
2023/05/19 01:30:59;;;;;;;5.20;1.48;;;;;;;13.17;47.08;102607.09;4999723;28;20517;-39
2023/05/19 01:33:31;;;;;;;3.97;1.35;;;;;;;13.14;47.38;102597.50;4996435;28;20141;-39
2023/05/19 01:35:57;;;;;;;9.05;1.80;;;;;;;13.09;47.29;102597.66;4992425;28;20026;-39
2023/05/19 01:38:27;;;;;;;4.97;1.65;;;;;;;13.06;47.48;102595.16;4995662;28;20030;-38
2023/05/19 01:40:54;;;;;;;5.20;1.50;;;;;;;13.04;47.57;102599.66;4996726;28;20045;-38
2023/05/19 01:43:23;;;;;;;4.53;1.30;;;;;;;13.02;47.63;102600.59;5001304;28;20042;-39
2023/05/19 01:45:50;;;;;;;5.22;1.48;;;;;;;13.05;47.57;102598.72;5000993;28;20132;-38
2023/05/19 01:48:17;;;;;;;9.18;1.60;;;;;;;13.01;47.67;102604.19;4998144;28;20493;-38
2023/05/19 01:50:42;;;;;;;4.45;1.73;;;;;;;12.94;47.83;102603.53;4998759;28;20524;-39
2023/05/19 01:53:11;;;;;;;4.93;1.63;;;;;;;12.92;47.95;102606.25;4997985;28;20085;-38
2023/05/19 01:55:43;;;;;;;3.30;1.33;;;;;;;12.88;48.19;102606.44;4994054;28;20107;-38
2023/05/19 01:58:35;;;;;;;5.85;1.70;;;;;;;12.81;48.39;102609.28;4997229;28;20054;-38
2023/05/19 02:01:03;;;;;;;3.55;1.45;;;;;;;12.78;48.25;102612.03;5001045;28;20050;-37
2023/05/19 02:03:56;;;;;;;6.60;1.40;;;;;;;12.77;48.92;102610.34;4993563;28;20030;-38
2023/05/19 02:06:30;;;;;;;6.03;1.50;;;;;;;12.77;48.44;102606.81;4994297;28;20033;-39
2023/05/19 02:09:16;;;;;;;7.10;1.50;;;;;;;12.74;49.07;102597.25;4994960;28;20120;-39
2023/05/19 02:12:22;;;;;;;6.10;2.30;;;;;;;12.73;48.59;102606.09;4994390;28;20388;-38
2023/05/19 02:14:54;;;;;;;3.97;1.27;;;;;;;12.71;48.61;102602.63;4996087;28;20428;-38
2023/05/19 02:17:22;;;;;;;3.78;1.17;;;;;;;12.75;48.32;102604.25;4998585;28;20025;-39
2023/05/19 02:19:50;;;;;;;3.92;1.35;;;;;;;12.66;48.31;102604.56;5000949;28;20427;-38
2023/05/19 02:22:15;;;;;;;7.07;1.60;;;;;;;12.60;48.66;102604.81;4996583;28;20125;-38
2023/05/19 02:24:43;;;;;;;6.05;1.50;;;;;;;12.57;48.80;102610.19;4982657;28;20030;-39
2023/05/19 02:27:08;;;;;;;6.03;2.40;;;;;;;12.55;48.91;102612.91;4995380;28;20026;-39
2023/05/19 02:29:34;;;;;;;6.05;1.52;;;;;;;12.52;48.72;102607.72;4989695;28;20084;-38
2023/05/19 02:32:00;;;;;;;6.13;1.58;;;;;;;12.47;49.00;102607.91;5004027;28;20093;-39
2023/05/19 02:34:28;;;;;;;5.32;1.88;;;;;;;12.49;49.00;102606.03;4987042;28;20046;-38
2023/05/19 02:36:55;;;;;;;6.95;1.60;;;;;;;12.55;48.92;102602.34;4998279;28;20057;-38
2023/05/19 02:39:21;;;;;;;6.22;1.42;;;;;;;12.58;48.93;102601.38;4993352;28;20068;-39
2023/05/19 02:41:46;;;;;;;4.60;1.40;;;;;;;12.49;48.98;102605.19;4995479;28;20030;-38
2023/05/19 02:44:21;;;;;;;6.57;1.88;;;;;;;12.47;49.06;102599.97;4985146;28;20035;-38
2023/05/19 02:46:47;;;;;;;9.57;1.80;;;;;;;12.45;49.08;102598.28;5000290;28;20126;-38
2023/05/19 02:49:12;;;;;;;4.38;1.40;;;;;;;12.50;49.19;102597.22;4986260;28;20038;-38
2023/05/19 02:51:38;;;;;;;10.15;2.13;;;;;;;12.50;49.08;102605.13;4979886;28;20099;-39
2023/05/19 02:54:03;;;;;;;9.18;1.67;;;;;;;12.47;49.21;102599.97;4998653;28;20399;-38
2023/05/19 02:56:28;;;;;;;6.60;1.55;;;;;;;12.45;49.24;102603.56;4994899;28;20076;-39
2023/05/19 02:58:54;;;;;;;12.15;2.30;;;;;;;12.42;49.37;102607.19;4979210;28;20040;-38
2023/05/19 03:01:21;;;;;;;3.95;1.40;;;;;;;12.41;49.51;102600.19;4998085;28;20042;-38
2023/05/19 03:03:47;;;;;;;4.95;1.30;;;;;;;12.43;49.44;102606.28;5001209;28;20117;-39
2023/05/19 03:06:12;;;;;;;8.85;1.75;;;;;;;12.43;49.47;102600.13;4999077;28;20105;-38
2023/05/19 03:08:39;;;;;;;4.93;1.88;;;;;;;12.42;49.57;102601.91;4997227;28;20031;-38
2023/05/19 03:11:09;;;;;;;4.95;1.30;;;;;;;12.46;49.58;102606.19;4995314;28;20068;-38
2023/05/19 03:13:34;;;;;;;4.60;1.60;;;;;;;12.48;49.42;102598.19;4992928;28;20030;-37
2023/05/19 03:16:00;;;;;;;4.35;1.60;;;;;;;12.52;49.45;102602.44;4994181;28;20485;-37
2023/05/19 03:18:26;;;;;;;5.72;1.73;;;;;;;12.50;49.51;102601.66;4993417;28;20029;-38
2023/05/19 03:20:54;;;;;;;4.63;1.83;;;;;;;12.48;49.57;102606.97;4990734;28;20038;-37
2023/05/19 03:23:22;;;;;;;5.30;1.48;;;;;;;12.47;49.47;102607.03;4997002;28;20096;-38
2023/05/19 03:25:50;;;;;;;4.60;1.80;;;;;;;12.46;49.67;102607.94;4993943;28;20189;-37
2023/05/19 03:28:16;;;;;;;8.13;2.50;;;;;;;12.50;49.67;102614.84;4994782;28;20033;-38
2023/05/19 03:30:44;;;;;;;9.27;2.97;;;;;;;12.48;49.85;102617.53;4993184;28;20210;-44
2023/05/19 03:33:09;;;;;;;5.22;1.77;;;;;;;12.43;49.75;102611.56;5000531;28;20033;-38
2023/05/19 03:35:35;;;;;;;5.97;1.42;;;;;;;12.44;49.95;102615.94;4984850;28;20034;-37
2023/05/19 03:38:00;;;;;;;5.35;1.58;;;;;;;12.47;49.86;102614.94;4997300;28;20034;-38
2023/05/19 03:40:26;;;;;;;6.45;1.40;;;;;;;12.49;49.90;102613.13;4994274;28;20606;-38
2023/05/19 03:42:53;;;;;;;4.75;1.60;;;;;;;12.47;49.80;102615.81;4967315;28;20121;-39
2023/05/19 03:45:18;;;;;;;4.28;1.70;;;;;;;12.45;49.83;102617.66;4997667;28;20033;-37
2023/05/19 03:47:46;;;;;;;6.28;2.60;;;;;;;12.43;50.00;102619.47;4997170;28;20038;-38
2023/05/19 03:50:12;;;;;;;7.75;2.13;;;;;;;12.44;49.89;102631.78;4999002;28;20053;-38
2023/05/19 03:52:45;;;;;;;9.15;1.77;;;;;;;12.47;50.11;102625.50;4995830;28;20054;-37
2023/05/19 03:55:11;;;;;;;12.85;2.42;;;;;;;12.47;50.02;102626.38;4997762;28;20412;-38
2023/05/19 03:57:36;;;;;;;5.35;2.17;;;;;;;12.53;49.96;102629.72;4998508;28;20044;-38
2023/05/19 04:00:06;;;;;;;6.85;1.88;;;;;;;12.54;50.01;102631.44;5001454;28;20041;-38
2023/05/19 04:02:31;;;;;;;5.03;1.63;;;;;;;12.50;50.24;102631.53;5000129;28;20064;-38
2023/05/19 04:04:57;;;;;;;5.75;2.00;;;;;;;12.49;49.93;102623.69;4999859;28;20034;-38
2023/05/19 04:07:25;;;;;;;4.40;1.30;;;;;;;12.48;50.18;102621.97;4995439;28;20041;-38
2023/05/19 04:09:53;;;;;;;4.03;1.10;;;;;;;12.40;50.31;102618.75;4999798;28;20033;-38
2023/05/19 04:12:18;;;;;;;7.30;1.50;;;;;;;12.40;50.49;102626.66;4999599;28;20042;-39
2023/05/19 04:14:44;;;;;;;5.10;1.42;;;;;;;12.44;50.34;102631.78;5000356;28;20041;-38
2023/05/19 04:17:09;;;;;;;5.13;1.80;;;;;;;12.43;50.50;102622.13;5002724;28;20038;-39
2023/05/19 04:19:35;;;;;;;5.72;2.20;;;;;;;12.46;50.45;102626.44;4994822;28;20026;-38
2023/05/19 04:22:00;;;;;;;6.50;2.50;;;;;;;12.53;50.25;102629.72;4998468;28;20080;-37
2023/05/19 04:24:28;;;;;;;6.97;2.30;;;;;;;12.59;50.38;102632.13;5002074;28;20037;-37
2023/05/19 04:26:55;;;;;;;7.85;2.40;;;;;;;12.53;50.37;102627.94;4997361;28;20037;-38
2023/05/19 04:29:23;;;;;;;7.35;2.20;;;;;;;12.52;50.57;102633.25;4999789;28;20026;-37
2023/05/19 04:31:51;;;;;;;6.72;2.63;;;;;;;12.48;50.59;102628.09;4981483;28;20092;-37
2023/05/19 04:34:18;;;;;;;6.97;1.80;;;;;;;12.52;50.66;102628.84;4995896;28;20469;-38
2023/05/19 04:36:44;;;;;;;8.93;1.70;;;;;;;12.53;50.78;102635.00;4998016;28;20037;-37
2023/05/19 04:39:11;;;;;;;6.35;1.85;;;;;;;12.53;50.67;102630.59;4996932;28;20023;-39
2023/05/19 04:41:39;;;;;;;10.55;2.00;;;;;;;12.56;50.52;102633.09;4999393;28;20049;-37
2023/05/19 04:44:12;;;;;;;6.07;1.67;;;;;;;12.54;50.72;102632.31;4996870;28;20443;-38
2023/05/19 04:46:38;;;;;;;6.65;2.08;;;;;;;12.55;50.69;102630.50;4996283;28;20560;-38
2023/05/19 04:49:03;;;;;;;5.40;1.92;;;;;;;12.61;50.66;102638.22;5001858;28;20037;-38
2023/05/19 04:51:31;;;;;;;7.07;1.73;;;;;;;12.61;50.72;102633.78;4981805;28;20378;-38
2023/05/19 04:53:57;;;;;;;9.10;2.72;;;;;;;12.62;50.64;102630.25;4995537;28;20025;-37
2023/05/19 04:56:26;;;;;;;8.05;1.70;;;;;;;12.66;50.73;102636.25;4984807;28;20104;-38
2023/05/19 04:58:52;;;;;;;8.35;2.10;;;;;;;12.74;50.56;102639.50;4999558;28;20042;-38
2023/05/19 05:01:20;;;;;;;5.90;1.83;;;;;;;12.81;50.60;102633.06;4992294;28;20541;-38
2023/05/19 05:03:48;;;;;;;19.23;6.65;;;;;;;12.84;50.72;102636.50;4999342;28;20476;-39
2023/05/19 05:06:16;;;;;;;8.75;3.90;;;;;;;12.85;50.59;102630.31;5000390;28;20563;-39
2023/05/19 05:08:42;;;;;;;6.78;2.45;;;;;;;12.84;50.75;102634.75;4999855;28;20034;-37
2023/05/19 05:11:11;;;;;;;4.28;1.73;;;;;;;12.86;50.74;102632.88;5002373;28;20108;-37
2023/05/19 05:13:41;;;;;;;12.35;2.08;;;;;;;12.90;50.82;102633.66;4979141;28;20061;-38
2023/05/19 05:16:08;;;;;;;6.68;2.10;;;;;;;13.00;50.67;102634.19;4993606;28;20045;-38
2023/05/19 05:18:37;;;;;;;10.52;2.83;;;;;;;13.07;50.81;102631.25;4986826;28;20513;-38
2023/05/19 05:21:06;;;;;;;8.50;2.00;;;;;;;13.10;50.61;102631.09;4999335;28;20034;-39
2023/05/19 05:23:34;;;;;;;12.98;2.65;;;;;;;13.14;50.78;102633.63;4993451;28;20037;-39
2023/05/19 05:26:07;;;;;;;5.30;1.75;;;;;;;13.20;50.69;102621.03;4995015;28;20038;-37
2023/05/19 05:28:32;;;;;;;9.40;2.55;;;;;;;13.26;50.76;102620.81;4978958;28;21262;-37
2023/05/19 05:30:58;;;;;;;6.50;2.30;;;;;;;13.27;50.76;102619.00;4983942;28;20072;-37
2023/05/19 05:33:23;;;;;;;6.88;1.85;;;;;;;13.32;50.74;102618.81;5001130;28;20033;-37
2023/05/19 05:35:49;;;;;;;5.25;1.50;;;;;;;13.35;50.79;102622.22;5001515;28;20033;-38
2023/05/19 05:38:15;;;;;;;4.72;1.70;;;;;;;13.41;50.72;102626.44;4998692;28;20034;-38
2023/05/19 05:40:40;;;;;;;5.65;2.47;;;;;;;13.44;50.80;102620.16;4997356;28;20037;-38
2023/05/19 05:43:06;;;;;;;2.25;1.17;;;;;;;13.50;50.75;102625.22;5001229;28;20038;-39
2023/05/19 05:45:31;;;;;;;15.82;6.70;;;;;;;13.55;50.81;102615.28;4994570;28;20048;-38
2023/05/19 05:47:59;;;;;;;10.95;3.30;;;;;;;13.65;50.76;102618.44;4992935;28;20026;-38
2023/05/19 05:50:28;;;;;;;7.82;1.67;;;;;;;13.72;50.36;102619.91;4996709;28;20037;-39
2023/05/19 05:52:54;;;;;;;4.28;1.80;;;;;;;13.78;50.47;102624.09;4998152;28;20382;-40
2023/05/19 05:55:20;;;;;;;3.65;1.65;;;;;;;13.83;50.40;102627.41;4986373;28;20041;-38
2023/05/19 05:57:49;;;;;;;7.72;1.60;;;;;;;13.84;50.45;102618.56;4992777;28;20033;-38
2023/05/19 06:00:17;;;;;;;3.78;1.48;;;;;;;13.91;50.33;102624.47;4995912;28;20129;-38
2023/05/19 06:02:52;;;;;;;4.60;1.60;;;;;;;13.90;50.17;102626.22;5001831;28;20057;-39
2023/05/19 06:05:17;;;;;;;4.97;1.60;;;;;;;13.92;50.25;102619.09;5001589;28;20034;-38
2023/05/19 06:07:46;;;;;;;5.47;2.00;;;;;;;13.97;50.00;102619.75;5004887;28;20108;-37
2023/05/19 06:10:14;;;;;;;4.20;1.60;;;;;;;13.96;49.90;102622.47;4990157;28;20022;-39
2023/05/19 06:12:42;;;;;;;7.13;1.80;;;;;;;13.99;50.02;102628.47;4997395;28;20033;-43
2023/05/19 06:15:11;;;;;;;6.53;1.73;;;;;;;14.06;49.84;102622.94;4998990;28;20531;-38
2023/05/19 06:17:37;;;;;;;4.30;1.92;;;;;;;14.06;50.03;102630.88;4996764;28;20034;-37
2023/05/19 06:20:07;;;;;;;3.97;1.23;;;;;;;14.07;49.97;102622.00;4998252;28;20041;-38
2023/05/19 06:22:33;;;;;;;5.65;1.83;;;;;;;14.13;49.83;102622.59;4996418;28;20041;-37
2023/05/19 06:24:58;;;;;;;5.45;1.42;;;;;;;14.18;49.79;102631.22;4999292;28;20038;-37
2023/05/19 06:27:24;;;;;;;1.90;0.73;;;;;;;14.22;49.89;102626.66;4998279;28;20126;-37
2023/05/19 06:29:49;;;;;;;5.13;1.73;;;;;;;14.32;49.71;102632.41;4991425;28;20038;-37
2023/05/19 06:32:15;;;;;;;5.47;1.25;;;;;;;14.37;49.58;102634.84;5003041;28;20501;-37
2023/05/19 06:34:43;;;;;;;7.57;1.70;;;;;;;14.42;49.56;102630.22;5000554;28;20550;-36
2023/05/19 06:37:12;;;;;;;3.45;1.23;;;;;;;14.48;49.44;102624.63;4987544;28;20040;-37
2023/05/19 06:39:40;;;;;;;8.80;1.90;;;;;;;14.56;49.59;102622.53;5001357;28;20026;-37
2023/05/19 06:42:05;;;;;;;3.55;1.20;;;;;;;14.64;49.44;102623.03;4998522;28;20026;-37
2023/05/19 06:44:31;;;;;;;5.57;1.33;;;;;;;14.71;49.25;102622.78;4999226;28;20077;-37
2023/05/19 06:46:56;;;;;;;3.85;1.98;;;;;;;14.77;49.05;102627.78;5001248;28;20068;-37
2023/05/19 06:49:24;;;;;;;4.40;1.52;;;;;;;14.83;49.09;102632.84;5005182;28;20148;-38
2023/05/19 06:51:49;;;;;;;8.63;2.70;;;;;;;14.88;49.03;102633.50;4999048;28;20029;-37
2023/05/19 06:54:14;;;;;;;8.57;1.60;;;;;;;14.93;49.03;102628.81;4993163;28;20048;-38
2023/05/19 06:56:40;;;;;;;4.13;1.38;;;;;;;14.97;48.87;102636.63;5011794;28;20047;-38
2023/05/19 06:59:05;;;;;;;14.95;6.82;;;;;;;15.01;48.68;102635.56;4996942;28;21087;-38
2023/05/19 07:01:31;;;;;;;6.70;2.88;;;;;;;15.05;48.66;102631.84;4999136;28;20040;-38
2023/05/19 07:03:59;;;;;;;4.50;1.88;;;;;;;15.11;48.51;102625.41;4998312;28;20032;-37
2023/05/19 07:06:24;;;;;;;6.43;1.27;;;;;;;15.14;48.42;102633.19;4996294;28;20076;-37
2023/05/19 07:08:52;;;;;;;5.90;1.73;;;;;;;15.20;48.25;102631.09;4997203;28;20108;-40
2023/05/19 07:11:18;;;;;;;6.85;1.67;;;;;;;15.24;48.30;102635.34;4994795;28;20479;-40
2023/05/19 07:13:43;;;;;;;7.93;1.95;;;;;;;15.31;48.27;102632.41;4978567;28;20523;-38
2023/05/19 07:16:11;;;;;;;4.47;1.50;;;;;;;15.36;48.05;102635.66;4995562;28;20492;-38
2023/05/19 07:18:37;;;;;;;3.55;1.30;;;;;;;15.41;48.03;102631.03;4987741;28;20034;-38
2023/05/19 07:21:02;;;;;;;10.98;1.70;;;;;;;15.46;47.77;102625.47;4984070;28;20037;-38
2023/05/19 07:23:28;;;;;;;5.43;1.33;;;;;;;15.50;47.92;102630.56;4977374;28;20535;-38
2023/05/19 07:25:57;;;;;;;4.05;1.80;;;;;;;15.52;47.71;102631.34;4992828;28;20036;-38
2023/05/19 07:28:22;;;;;;;7.10;1.92;;;;;;;15.53;47.96;102626.91;4990203;28;20026;-38
2023/05/19 07:30:48;;;;;;;7.20;2.33;;;;;;;15.59;48.12;102631.06;4999495;28;20033;-38
2023/05/19 07:33:14;;;;;;;2.92;1.35;;;;;;;15.63;48.00;102630.84;4987849;28;20034;-37
2023/05/19 07:35:39;;;;;;;5.47;1.52;;;;;;;15.67;47.92;102628.88;4996018;28;20038;-37
2023/05/19 07:38:06;;;;;;;3.58;1.45;;;;;;;15.70;47.87;102619.00;4992925;28;20054;-38
2023/05/19 07:40:31;;;;;;;8.55;2.25;;;;;;;15.76;47.94;102623.13;4990408;28;20042;-38
2023/05/19 07:42:57;;;;;;;6.88;1.90;;;;;;;15.80;47.67;102627.34;4984140;28;20042;-38
2023/05/19 07:45:22;;;;;;;4.13;2.03;;;;;;;15.82;47.42;102621.97;5002112;28;20412;-37
2023/05/19 07:47:48;;;;;;;21.08;2.60;;;;;;;15.84;47.69;102628.06;4993145;28;20046;-38
2023/05/19 07:50:13;;;;;;;5.22;2.03;;;;;;;15.88;47.81;102623.47;4964906;28;20038;-38
2023/05/19 07:52:38;;;;;;;6.63;1.40;;;;;;;15.92;47.65;102617.94;4978873;28;20042;-37
2023/05/19 07:55:04;;;;;;;5.50;1.30;;;;;;;15.97;47.62;102609.72;4991274;28;20041;-38
2023/05/19 07:57:31;;;;;;;5.22;1.63;;;;;;;16.02;47.66;102609.50;4995721;28;20056;-38
2023/05/19 07:59:56;;;;;;;3.67;1.60;;;;;;;16.05;47.66;102604.91;4995527;28;20037;-37
2023/05/19 08:02:22;;;;;;;5.97;1.88;;;;;;;16.13;47.60;102605.34;4997056;28;20052;-38
2023/05/19 08:04:48;;;;;;;5.60;1.27;;;;;;;16.19;47.62;102608.63;4982735;28;20033;-38
2023/05/19 08:07:13;;;;;;;5.55;2.00;;;;;;;16.24;47.30;102615.41;5001857;28;20030;-38
2023/05/19 08:09:39;;;;;;;6.07;2.00;;;;;;;16.32;47.40;102611.53;4964910;28;20038;-38
2023/05/19 08:12:12;;;;;;;4.45;1.65;;;;;;;16.37;47.09;102613.00;5001458;28;20058;-41
2023/05/19 08:14:37;;;;;;;2.63;1.20;;;;;;;16.42;47.00;102605.63;4998844;28;20026;-38
2023/05/19 08:17:03;;;;;;;5.13;1.80;;;;;;;16.47;46.89;102608.06;4996320;28;20064;-38
2023/05/19 08:19:31;;;;;;;2.42;1.40;;;;;;;16.57;46.67;102609.28;4998051;28;20076;-38
2023/05/19 08:21:59;;;;;;;3.78;1.52;;;;;;;16.62;46.63;102611.66;4995084;28;20029;-38
2023/05/19 08:24:28;;;;;;;5.10;3.38;;;;;;;16.68;46.51;102608.69;4995387;28;20053;-38
2023/05/19 08:26:54;;;;;;;4.65;1.38;;;;;;;16.74;46.81;102603.03;4998747;28;20019;-37
2023/05/19 08:29:20;;;;;;;10.82;4.03;;;;;;;16.77;46.14;102599.38;5000702;28;20022;-38
2023/05/19 08:31:45;;;;;;;6.45;2.20;;;;;;;16.80;46.22;102593.00;4998412;28;20179;-38
2023/05/19 08:34:11;;;;;;;11.35;4.07;;;;;;;16.83;46.25;102599.00;4993743;28;20436;-41
2023/05/19 08:36:36;;;;;;;5.18;1.60;;;;;;;16.87;46.08;102595.25;4994196;28;20026;-39
2023/05/19 08:39:07;;;;;;;5.00;1.70;;;;;;;16.88;46.26;102596.97;5001770;28;20026;-40
2023/05/19 08:41:35;;;;;;;4.75;1.48;;;;;;;16.88;46.14;102598.75;4994859;28;20409;-39
2023/05/19 08:44:01;;;;;;;7.53;1.55;;;;;;;16.91;46.18;102595.94;4985753;28;20086;-38
2023/05/19 08:46:28;;;;;;;4.97;1.40;;;;;;;16.97;46.13;102595.63;5000434;28;20080;-39
2023/05/19 08:49:00;;;;;;;5.78;1.20;;;;;;;17.04;46.04;102594.34;4996532;28;20519;-39
2023/05/19 08:51:40;;;;;;;5.93;1.63;;;;;;;17.11;45.87;102599.31;5002159;28;20141;-38
2023/05/19 08:54:17;;;;;;;6.65;1.92;;;;;;;17.17;45.87;102602.50;4993319;28;20032;-39
2023/05/19 08:56:44;;;;;;;3.38;1.15;;;;;;;17.21;45.56;102597.84;4997704;28;20041;-39
2023/05/19 08:59:12;;;;;;;2.85;1.30;;;;;;;17.26;45.63;102593.13;4996423;28;20022;-39
2023/05/19 09:01:39;;;;;;;2.80;1.25;;;;;;;17.29;45.36;102590.31;4989435;28;20092;-39
2023/05/19 09:04:10;;;;;;;2.92;1.35;;;;;;;17.31;45.09;102593.75;4993632;28;20029;-39
2023/05/19 09:06:35;;;;;;;4.78;1.17;;;;;;;17.34;44.77;102595.38;4997062;28;20034;-39
2023/05/19 09:09:05;;;;;;;3.70;1.10;;;;;;;17.36;44.58;102586.34;4991207;28;20567;-39
2023/05/19 09:11:36;;;;;;;2.80;1.10;;;;;;;17.36;44.69;102580.19;4993702;28;20026;-38
2023/05/19 09:14:03;;;;;;;5.07;1.45;;;;;;;17.40;44.50;102581.69;5000240;28;20489;-39
2023/05/19 09:16:29;;;;;;;5.90;1.80;;;;;;;17.47;44.62;102598.19;4997154;28;20398;-38
2023/05/19 09:19:00;;;;;;;4.20;1.60;;;;;;;17.48;44.46;102589.22;4998725;28;20445;-38
2023/05/19 09:21:32;;;;;;;7.53;2.33;;;;;;;17.56;44.40;102597.66;4997973;28;20049;-39
2023/05/19 09:24:03;;;;;;;8.48;2.83;;;;;;;17.56;44.34;102592.31;4997641;28;20405;-39
2023/05/19 09:26:39;;;;;;;4.40;1.03;;;;;;;17.63;43.64;102583.00;4996043;28;20048;-38
2023/05/19 09:29:14;;;;;;;2.72;1.10;;;;;;;17.68;43.86;102586.28;4992963;28;20033;-39
2023/05/19 09:31:59;;;;;;;3.47;1.23;;;;;;;17.72;43.49;102578.13;4976699;28;20034;-38
2023/05/19 09:34:27;;;;;;;5.25;1.25;;;;;;;17.75;43.86;102581.44;4992264;28;20411;-39
2023/05/19 09:36:53;;;;;;;4.75;1.25;;;;;;;17.80;43.70;102578.50;4990394;28;20484;-37
2023/05/19 09:39:20;;;;;;;4.35;1.98;;;;;;;17.88;43.59;102576.25;4988474;28;20108;-38
2023/05/19 09:41:45;;;;;;;3.03;1.17;;;;;;;17.92;43.28;102576.91;4997660;28;20037;-37
2023/05/19 09:44:28;;;;;;;5.45;1.70;;;;;;;18.24;42.88;102582.97;5000409;28;20096;-37
2023/05/19 09:46:54;;;;;;;4.13;1.30;;;;;;;18.64;41.75;102574.31;5002337;28;20034;-38
2023/05/19 09:49:22;;;;;;;3.25;1.65;;;;;;;18.75;41.51;102578.97;4998033;28;20112;-37
2023/05/19 09:51:52;;;;;;;4.22;1.05;;;;;;;18.85;41.05;102571.25;5004376;28;20054;-37
2023/05/19 09:54:19;;;;;;;3.42;0.93;;;;;;;18.95;40.85;102568.88;5001309;28;20101;-37
2023/05/19 09:56:44;;;;;;;1.85;0.68;;;;;;;18.99;40.64;102573.03;5003140;28;20567;-37
2023/05/19 09:59:12;;;;;;;4.13;1.77;;;;;;;19.06;40.47;102558.38;4997752;28;20033;-37
2023/05/19 10:01:39;;;;;;;6.60;1.17;;;;;;;19.10;40.42;102551.88;5000317;28;20080;-37
2023/05/19 10:04:05;;;;;;;1.75;0.80;;;;;;;19.15;40.10;102554.25;5000667;28;20033;-39
2023/05/19 10:06:31;;;;;;;1.67;0.80;;;;;;;19.24;39.69;102552.78;5006580;28;20034;-37
2023/05/19 10:08:58;;;;;;;2.58;0.93;;;;;;;19.28;39.48;102551.63;4994981;28;20042;-37
2023/05/19 10:11:26;;;;;;;1.95;0.65;;;;;;;19.33;38.95;102544.16;5005100;28;20022;-38
2023/05/19 10:13:51;;;;;;;5.70;0.77;;;;;;;19.33;39.15;102546.81;4998753;28;20061;-38
2023/05/19 10:16:18;;;;;;;1.45;0.77;;;;;;;19.47;38.90;102546.75;4997904;28;20050;-38
2023/05/19 10:18:44;;;;;;;2.67;0.93;;;;;;;19.56;38.64;102539.09;5001404;28;20046;-38
2023/05/19 10:21:12;;;;;;;4.88;1.30;;;;;;;19.62;38.40;102534.19;4994645;28;20707;-38
2023/05/19 10:23:37;;;;;;;5.55;0.88;;;;;;;19.67;38.41;102538.34;4992624;28;20145;-38
2023/05/19 10:26:05;;;;;;;5.03;1.42;;;;;;;19.74;38.03;102542.31;4997061;28;20042;-38
2023/05/19 10:28:37;;;;;;;9.30;3.08;;;;;;;19.78;37.65;102536.66;4990637;28;20512;-38
2023/05/19 10:31:08;;;;;;;4.43;1.17;;;;;;;19.88;37.54;102538.75;4999421;28;20037;-38
2023/05/19 10:33:58;;;;;;;2.15;0.65;;;;;;;19.93;37.37;102533.91;4996208;28;20147;-37
2023/05/19 10:36:47;;;;;;;1.88;0.90;;;;;;;19.40;38.27;102539.25;4994337;28;20593;-36
2023/05/19 10:39:21;;;;;;;3.67;1.20;;;;;;;19.42;38.79;102538.22;4999163;28;20084;-39
2023/05/19 10:41:58;;;;;;;4.10;1.10;;;;;;;19.47;39.00;102528.06;4999160;28;20025;-37
2023/05/19 10:44:51;;;;;;;2.85;0.73;;;;;;;19.55;38.79;102526.72;5000391;28;20034;-37
2023/05/19 10:47:26;;;;;;;3.50;1.00;;;;;;;19.56;38.39;102529.25;4989443;28;20106;-36
2023/05/19 10:49:52;;;;;;;1.70;0.77;;;;;;;19.57;38.73;102530.13;4990245;28;20027;-38
2023/05/19 10:52:21;;;;;;;0.73;0.45;;;;;;;19.59;38.49;102528.19;4991225;28;20092;-38
2023/05/19 10:54:47;;;;;;;2.70;0.95;;;;;;;19.59;38.14;102522.84;4984812;28;20035;-37
2023/05/19 10:57:24;;;;;;;3.97;0.90;;;;;;;19.61;38.15;102531.63;4991789;28;20022;-37
2023/05/19 10:59:49;;;;;;;5.18;1.08;;;;;;;19.62;38.17;102517.31;4990766;28;20022;-39
2023/05/19 11:02:37;;;;;;;3.00;1.60;;;;;;;19.64;37.96;102524.28;4999149;28;20088;-38
2023/05/19 11:05:15;;;;;;;2.20;1.00;;;;;;;19.72;37.98;102531.75;4997768;28;20036;-38
2023/05/19 11:07:43;;;;;;;2.72;0.88;;;;;;;19.75;38.16;102530.69;4998214;28;20043;-39
2023/05/19 11:10:09;;;;;;;2.72;1.20;;;;;;;19.78;38.16;102520.63;4977162;28;20127;-39
2023/05/19 11:12:43;;;;;;;3.38;1.00;;;;;;;19.90;37.72;102528.78;4987539;28;20030;-39
2023/05/19 11:15:15;;;;;;;3.50;1.08;;;;;;;19.95;37.60;102529.34;4993421;28;20026;-39
2023/05/19 11:17:44;;;;;;;5.13;1.75;;;;;;;19.97;37.75;102527.41;4999703;28;20140;-38
2023/05/19 11:20:23;;;;;;;5.72;1.02;;;;;;;19.99;37.57;102524.63;4983298;28;20038;-39
2023/05/19 11:23:17;;;;;;;2.95;0.88;;;;;;;19.95;36.91;102524.00;4988480;28;20034;-40
2023/05/19 11:25:47;;;;;;;318.42;53.50;;;;;;;19.95;37.75;102521.31;4996197;28;20034;-39
2023/05/19 11:28:18;;;;;;;5.78;1.40;;;;;;;19.93;37.54;102523.22;4991573;28;20128;-40
2023/05/19 11:30:45;;;;;;;4.03;1.38;;;;;;;19.91;37.91;102520.69;4999765;28;20385;-38